Cairo, West Virginia
Current Conditions -  °F | °C
As of 12:53 AM on Thursday 23 Oct 2014 (Local Time) from KPKB Reporting Station
Overcast Overcast  
Wind Chill: 46°   Ceiling: 3700
Heat Index: 46°   Visibility: 10mi
Dew Point: 41°   Wind: 3mph
Humidity: 83%   Direction: 310°NW
Pressure: 30.22"   Gusts: NA
Location:  39.21°N, 81.16°W
Report Text: KPKB 230453Z AUTO 31003KT 10SM OVC037 08/05 A3022 RMK AO2 SLP233 T00780050 401110072
Loading
Personal Weather Stations






























Interactive Weather Map
Tropical Storm Tracking
New forecast layout! Learn more

10-Day Weather Forecast

Advertisements
Track Severe Weather on mobile